createdAt,value
2022-12-16T00:01:25.604Z,3.34
2022-12-16T00:03:55.862Z,3.44
2022-12-16T00:06:25.586Z,3.56
2022-12-16T00:08:52.955Z,3.61
2022-12-16T00:11:22.418Z,3.62
2022-12-16T00:13:49.394Z,3.62
2022-12-16T00:16:20.461Z,3.61
2022-12-16T00:18:48.488Z,3.65
2022-12-16T00:21:18.416Z,3.70
2022-12-16T00:23:45.819Z,3.81
2022-12-16T00:26:13.767Z,3.92
2022-12-16T00:28:43.655Z,4.00
2022-12-16T00:31:11.365Z,4.04
2022-12-16T00:33:38.648Z,4.10
2022-12-16T00:36:06.769Z,4.17
2022-12-16T00:38:33.715Z,4.23
2022-12-16T00:41:01.012Z,4.26
2022-12-16T00:43:27.961Z,4.26
2022-12-16T00:45:56.313Z,4.27
2022-12-16T00:48:23.468Z,4.25
2022-12-16T00:50:52.666Z,4.22
2022-12-16T00:53:23.705Z,4.27
2022-12-16T00:55:50.717Z,4.32
2022-12-16T00:58:19.028Z,4.37
2022-12-16T01:00:46.062Z,4.42
2022-12-16T01:03:21.059Z,4.47
2022-12-16T01:05:49.185Z,4.48
2022-12-16T01:08:16.450Z,4.47
2022-12-16T01:10:49.378Z,4.48
2022-12-16T01:13:17.763Z,4.49
2022-12-16T01:15:44.729Z,4.53
2022-12-16T01:18:11.758Z,4.56
2022-12-16T01:20:40.235Z,4.54
2022-12-16T01:23:07.326Z,4.52
2022-12-16T01:25:35.375Z,4.48
2022-12-16T01:28:02.334Z,4.48
2022-12-16T01:30:29.431Z,4.51
2022-12-16T01:32:56.369Z,4.51
2022-12-16T01:35:52.002Z,4.46
2022-12-16T01:38:11.642Z,4.39
2022-12-16T01:40:38.583Z,4.33
2022-12-16T01:43:12.679Z,4.24
2022-12-16T01:45:40.182Z,4.17
2022-12-16T01:48:21.343Z,4.09
2022-12-16T01:50:52.451Z,4.01
2022-12-16T01:53:21.886Z,3.91
2022-12-16T01:55:54.678Z,3.87
2022-12-16T01:58:26.789Z,3.88
2022-12-16T02:00:54.433Z,3.92
2022-12-16T02:03:22.576Z,3.93
2022-12-16T02:05:51.097Z,3.95
2022-12-16T02:08:21.036Z,3.97
2022-12-16T02:11:11.973Z,3.90
2022-12-16T02:14:09.023Z,3.82
2022-12-16T02:16:49.874Z,3.68
2022-12-16T02:20:03.829Z,3.47
2022-12-16T02:22:58.341Z,3.41
2022-12-16T02:25:57.954Z,3.35
2022-12-16T02:28:55.376Z,3.19
2022-12-16T02:31:34.893Z,3.17
2022-12-16T02:34:21.559Z,3.18
2022-12-16T02:37:08.122Z,3.20
2022-12-16T02:39:39.449Z,3.27
2022-12-16T02:42:19.451Z,3.31
2022-12-16T02:45:02.931Z,3.34
2022-12-16T02:47:32.931Z,3.35
2022-12-16T02:50:00.558Z,3.38
2022-12-16T02:52:32.958Z,3.41
2022-12-16T02:55:06.232Z,3.41
2022-12-16T02:58:08.983Z,3.39
2022-12-16T03:00:50.613Z,3.40
2022-12-16T03:03:30.869Z,3.38
2022-12-16T03:06:01.841Z,3.37
2022-12-16T03:08:35.558Z,3.35
2022-12-16T03:11:08.181Z,3.38
2022-12-16T03:13:43.723Z,3.40
2022-12-16T03:16:16.188Z,3.38
2022-12-16T03:18:54.961Z,3.29
2022-12-16T03:21:27.442Z,3.23
2022-12-16T03:24:00.457Z,3.18
2022-12-16T03:26:35.172Z,3.19
2022-12-16T03:29:09.954Z,3.21
2022-12-16T03:31:42.700Z,3.22
2022-12-16T03:34:20.395Z,3.23
2022-12-16T03:36:56.510Z,3.25
2022-12-16T03:39:26.978Z,3.23
2022-12-16T03:41:55.968Z,3.19
2022-12-16T03:44:25.233Z,3.15
2022-12-16T03:46:52.452Z,3.16
2022-12-16T03:49:22.233Z,3.15
2022-12-16T03:51:49.212Z,3.16
2022-12-16T03:54:16.214Z,3.16
2022-12-16T03:56:43.189Z,3.20
2022-12-16T03:59:10.903Z,3.23
2022-12-16T04:01:37.920Z,3.27
2022-12-16T04:04:05.273Z,3.26
2022-12-16T04:06:33.751Z,3.29
2022-12-16T04:09:00.715Z,3.32
2022-12-16T04:12:03.231Z,3.35
2022-12-16T04:14:53.265Z,3.39
2022-12-16T04:17:39.241Z,3.39
2022-12-16T04:20:34.045Z,3.36
2022-12-16T04:23:22.587Z,3.42
2022-12-16T04:25:50.322Z,3.53
2022-12-16T04:28:17.508Z,3.60
2022-12-16T04:30:44.518Z,3.63
2022-12-16T04:33:33.248Z,3.68
2022-12-16T04:36:19.132Z,3.68
2022-12-16T04:39:05.877Z,3.71
2022-12-16T04:41:51.389Z,3.77
2022-12-16T04:44:37.457Z,3.81
2022-12-16T04:47:23.286Z,3.79
2022-12-16T04:50:08.816Z,3.77
2022-12-16T04:52:54.669Z,3.70
2022-12-16T04:55:41.491Z,3.67
2022-12-16T04:58:27.180Z,3.58
2022-12-16T05:01:12.675Z,3.52
2022-12-16T05:03:58.427Z,3.47
2022-12-16T05:06:43.558Z,3.48
2022-12-16T05:09:29.021Z,3.55
2022-12-16T05:12:15.980Z,3.59
2022-12-16T05:15:01.831Z,3.57
2022-12-16T05:17:47.654Z,3.54
2022-12-16T05:20:33.535Z,3.56
2022-12-16T05:23:18.894Z,3.57
2022-12-16T05:26:04.932Z,3.60
2022-12-16T05:28:52.134Z,3.64
2022-12-16T05:31:38.175Z,3.63
2022-12-16T05:34:23.977Z,3.62
2022-12-16T05:37:09.391Z,3.65
2022-12-16T05:39:56.570Z,3.73
2022-12-16T05:42:42.081Z,3.76
2022-12-16T05:45:29.652Z,3.76
2022-12-16T05:48:15.191Z,3.77
2022-12-16T05:51:00.749Z,3.88
2022-12-16T05:53:46.291Z,3.93
2022-12-16T05:56:31.850Z,3.84
2022-12-16T05:59:17.178Z,3.75
2022-12-16T06:02:04.243Z,3.68
2022-12-16T06:04:50.153Z,3.59
2022-12-16T06:07:35.844Z,3.54
2022-12-16T06:10:36.966Z,3.51
2022-12-16T06:13:22.424Z,3.53
2022-12-16T06:16:09.133Z,3.54
2022-12-16T06:18:56.334Z,3.53
2022-12-16T06:21:42.791Z,3.44
2022-12-16T06:24:28.792Z,3.32
2022-12-16T06:27:14.692Z,3.20
2022-12-16T06:30:00.189Z,3.14
2022-12-16T06:32:45.731Z,3.11
2022-12-16T06:35:32.556Z,3.04
2022-12-16T06:38:18.057Z,3.07
2022-12-16T06:41:03.439Z,3.14
2022-12-16T06:43:48.998Z,3.19
2022-12-16T06:46:34.591Z,3.21
2022-12-16T06:49:20.104Z,3.24
2022-12-16T06:52:06.862Z,3.28
2022-12-16T06:54:52.501Z,3.29
2022-12-16T06:57:37.902Z,3.29
2022-12-16T07:00:27.385Z,3.33
2022-12-16T07:03:16.921Z,3.32
2022-12-16T07:06:02.848Z,3.30
2022-12-16T07:08:49.531Z,3.28
2022-12-16T07:11:35.275Z,3.32
2022-12-16T07:14:21.124Z,3.33
2022-12-16T07:17:06.435Z,3.34
2022-12-16T07:19:52.035Z,3.41
2022-12-16T07:22:37.770Z,3.52
2022-12-16T07:25:26.223Z,3.59
2022-12-16T07:28:15.534Z,3.62
2022-12-16T07:31:02.464Z,3.66
2022-12-16T07:33:47.919Z,3.70
2022-12-16T07:36:33.628Z,3.70
2022-12-16T07:39:19.135Z,3.74
2022-12-16T07:42:05.949Z,3.69
2022-12-16T07:44:51.597Z,3.67
2022-12-16T07:47:36.963Z,3.67
2022-12-16T07:50:23.524Z,3.66
2022-12-16T07:53:13.572Z,3.68
2022-12-16T07:55:58.845Z,3.70
2022-12-16T07:58:46.634Z,3.73
2022-12-16T08:01:32.726Z,3.80
2022-12-16T08:04:18.495Z,3.88
2022-12-16T08:07:04.671Z,3.96
2022-12-16T08:09:50.168Z,4.04
2022-12-16T08:12:36.975Z,4.11
2022-12-16T08:15:25.618Z,4.17
2022-12-16T08:18:12.354Z,4.22
2022-12-16T08:20:58.143Z,4.25
2022-12-16T08:23:44.049Z,4.28
2022-12-16T08:26:29.708Z,4.30
2022-12-16T08:29:42.415Z,4.31
2022-12-16T08:32:22.756Z,4.31
2022-12-16T08:35:08.092Z,4.33
2022-12-16T08:37:54.108Z,4.40
2022-12-16T08:40:43.033Z,4.45
2022-12-16T08:43:29.117Z,4.47
2022-12-16T08:46:15.336Z,4.47
2022-12-16T08:49:02.403Z,4.44
2022-12-16T08:51:48.638Z,4.42
2022-12-16T08:54:34.162Z,4.38
2022-12-16T08:57:20.250Z,4.35
2022-12-16T09:00:06.110Z,4.38
2022-12-16T09:02:51.659Z,4.41
2022-12-16T09:05:40.097Z,4.45
2022-12-16T09:08:26.288Z,4.49
2022-12-16T09:11:11.954Z,4.52
2022-12-16T09:13:58.696Z,4.57
2022-12-16T09:16:44.496Z,4.66
2022-12-16T09:19:30.352Z,4.68
2022-12-16T09:22:17.322Z,4.68
2022-12-16T09:25:03.198Z,4.75
2022-12-16T09:27:48.584Z,4.85
2022-12-16T09:30:34.258Z,4.95
2022-12-16T09:33:21.165Z,4.98
2022-12-16T09:36:26.739Z,5.04
2022-12-16T09:39:13.450Z,5.10
2022-12-16T09:42:02.352Z,5.10
2022-12-16T09:45:06.632Z,4.99
2022-12-16T09:48:06.707Z,4.96
2022-12-16T09:50:58.363Z,5.04
2022-12-16T09:53:46.918Z,5.16
2022-12-16T09:56:39.326Z,5.21
2022-12-16T09:59:33.165Z,5.26
2022-12-16T10:02:20.473Z,5.34
2022-12-16T10:05:10.681Z,5.40
2022-12-16T10:08:08.715Z,5.37
2022-12-16T10:11:10.471Z,5.47
2022-12-16T10:14:07.372Z,5.63
2022-12-16T10:17:09.754Z,5.74
2022-12-16T10:20:12.265Z,5.83
2022-12-16T10:23:08.946Z,5.87
2022-12-16T10:26:04.206Z,5.89
2022-12-16T10:29:05.031Z,5.93
2022-12-16T10:31:52.146Z,6.03
2022-12-16T10:34:45.562Z,6.13
2022-12-16T10:37:39.547Z,6.26
2022-12-16T10:40:33.775Z,6.41
2022-12-16T10:43:24.115Z,6.57
2022-12-16T10:46:15.262Z,6.69
2022-12-16T10:49:01.840Z,6.80
2022-12-16T10:51:48.741Z,6.90
2022-12-16T10:54:50.681Z,6.93
2022-12-16T10:57:51.187Z,6.91
2022-12-16T11:00:55.492Z,6.83
2022-12-16T11:03:47.988Z,6.74
2022-12-16T11:06:40.823Z,6.70
2022-12-16T11:09:48.309Z,6.67
2022-12-16T11:12:48.224Z,6.66
2022-12-16T11:15:43.216Z,6.70
2022-12-16T11:18:32.816Z,6.78
2022-12-16T11:21:36.775Z,6.83
2022-12-16T11:24:33.403Z,6.95
2022-12-16T11:27:21.902Z,7.04
2022-12-16T11:30:10.642Z,7.09
2022-12-16T11:32:59.222Z,7.11
2022-12-16T11:35:49.312Z,7.17
2022-12-16T11:38:47.888Z,7.29
2022-12-16T11:41:44.915Z,7.37
2022-12-16T11:44:41.149Z,7.44
2022-12-16T11:47:42.216Z,7.61
2022-12-16T11:50:35.728Z,7.81
2022-12-16T11:53:28.709Z,8.17
2022-12-16T11:56:19.147Z,8.65
2022-12-16T11:59:10.125Z,9.03
2022-12-16T12:02:03.889Z,9.42
2022-12-16T12:04:49.832Z,9.50
2022-12-16T12:07:57.490Z,9.37
2022-12-16T12:11:22.603Z,9.34
2022-12-16T12:14:28.807Z,9.59
2022-12-16T12:17:32.100Z,9.58
2022-12-16T12:20:45.241Z,9.30
2022-12-16T12:23:49.655Z,9.02
2022-12-16T12:26:45.734Z,8.74
2022-12-16T12:29:51.454Z,8.47
2022-12-16T12:32:51.892Z,8.27
2022-12-16T12:36:00.763Z,7.96
2022-12-16T12:38:59.138Z,7.76
2022-12-16T12:41:59.522Z,7.50
2022-12-16T12:45:04.104Z,7.26
2022-12-16T12:47:56.894Z,7.11
2022-12-16T12:50:53.137Z,7.03
2022-12-16T12:53:54.616Z,6.97
2022-12-16T12:56:58.805Z,6.86
2022-12-16T13:00:02.042Z,6.80
2022-12-16T13:03:01.309Z,6.71
2022-12-16T13:05:51.299Z,6.65
2022-12-16T13:09:16.823Z,6.52
2022-12-16T13:12:48.452Z,6.31
2022-12-16T13:15:53.529Z,6.14
2022-12-16T13:18:43.536Z,6.20
2022-12-16T13:22:04.924Z,6.25
2022-12-16T13:24:59.474Z,6.33
2022-12-16T13:28:04.045Z,6.39
2022-12-16T13:30:52.090Z,6.41
2022-12-16T13:33:47.741Z,6.43
2022-12-16T13:36:36.838Z,6.44
2022-12-16T13:39:42.826Z,6.39
2022-12-16T13:43:08.810Z,6.33
2022-12-16T13:46:01.512Z,6.25
2022-12-16T13:48:55.618Z,6.18
2022-12-16T13:52:19.874Z,6.08
2022-12-16T13:55:24.988Z,6.07
2022-12-16T13:58:20.923Z,6.12
2022-12-16T14:01:20.136Z,6.17
2022-12-16T14:04:09.546Z,6.20
2022-12-16T14:06:58.582Z,6.23
2022-12-16T14:09:52.869Z,6.24
2022-12-16T14:13:15.204Z,6.20
2022-12-16T14:16:18.729Z,6.21
2022-12-16T14:19:26.994Z,6.20
2022-12-16T14:22:33.253Z,6.24
2022-12-16T14:25:27.992Z,6.23
2022-12-16T14:28:16.988Z,6.22
2022-12-16T14:31:02.497Z,6.21
2022-12-16T14:33:48.526Z,6.18
2022-12-16T14:36:43.793Z,6.17
2022-12-16T14:39:32.289Z,6.18
2022-12-16T14:42:18.017Z,6.16
2022-12-16T14:45:06.915Z,6.14
2022-12-16T14:47:58.771Z,6.11
2022-12-16T14:50:48.394Z,6.07
2022-12-16T14:53:37.818Z,6.00
2022-12-16T14:56:37.039Z,5.93
2022-12-16T14:59:38.010Z,5.85
2022-12-16T15:02:46.510Z,5.76
2022-12-16T15:05:33.589Z,5.70
2022-12-16T15:08:19.739Z,5.61
2022-12-16T15:11:06.437Z,5.47
2022-12-16T15:13:57.750Z,5.36
2022-12-16T15:16:53.368Z,5.27
2022-12-16T15:19:43.045Z,5.24
2022-12-16T15:22:35.902Z,5.24
2022-12-16T15:25:22.422Z,5.27
2022-12-16T15:28:30.474Z,5.27
2022-12-16T15:31:31.843Z,5.24
2022-12-16T15:34:40.464Z,5.16
2022-12-16T15:37:41.876Z,5.12
2022-12-16T15:40:46.766Z,5.08
2022-12-16T15:43:57.339Z,5.07
2022-12-16T15:46:46.402Z,5.08
2022-12-16T15:49:42.636Z,5.07
2022-12-16T15:52:53.312Z,5.04
2022-12-16T15:55:48.000Z,5.04
2022-12-16T15:58:40.080Z,5.04
2022-12-16T16:01:26.668Z,5.05
2022-12-16T16:04:15.026Z,5.05
2022-12-16T16:07:06.557Z,5.04
2022-12-16T16:09:56.148Z,5.02
2022-12-16T16:12:44.295Z,4.99
2022-12-16T16:15:33.298Z,4.95
2022-12-16T16:18:24.427Z,4.92
2022-12-16T16:21:10.970Z,4.91
2022-12-16T16:23:56.520Z,4.89
2022-12-16T16:26:46.756Z,4.88
2022-12-16T16:29:32.495Z,4.87
2022-12-16T16:32:18.157Z,4.85
2022-12-16T16:35:04.046Z,4.82
2022-12-16T16:37:49.328Z,4.78
2022-12-16T16:40:45.678Z,4.74
2022-12-16T16:43:32.997Z,4.72
2022-12-16T16:46:19.185Z,4.71
2022-12-16T16:49:05.195Z,4.69
2022-12-16T16:51:50.813Z,4.67
2022-12-16T16:54:36.440Z,4.67
2022-12-16T16:57:22.214Z,4.66
2022-12-16T17:00:09.101Z,4.65
2022-12-16T17:02:54.964Z,4.65
2022-12-16T17:05:41.733Z,4.67
2022-12-16T17:08:27.112Z,4.71
2022-12-16T17:11:29.835Z,4.75
2022-12-16T17:14:15.473Z,4.79
2022-12-16T17:17:02.322Z,4.79
2022-12-16T17:19:47.918Z,4.79
2022-12-16T17:22:33.471Z,4.81
2022-12-16T17:25:19.328Z,4.84
2022-12-16T17:28:05.163Z,4.87
2022-12-16T17:30:50.759Z,4.91
2022-12-16T17:33:37.976Z,4.93
2022-12-16T17:36:28.503Z,4.96
2022-12-16T17:39:17.249Z,4.97
2022-12-16T17:42:03.197Z,4.99
2022-12-16T17:44:48.926Z,4.99
2022-12-16T17:47:35.243Z,5.02
2022-12-16T17:50:24.003Z,5.04
2022-12-16T17:53:13.073Z,5.07
2022-12-16T17:55:58.574Z,5.08
2022-12-16T17:58:52.789Z,5.03
2022-12-16T18:01:39.215Z,5.01
2022-12-16T18:04:25.695Z,4.99
2022-12-16T18:07:13.156Z,5.00
2022-12-16T18:09:58.633Z,5.01
2022-12-16T18:12:45.477Z,5.01
2022-12-16T18:15:31.234Z,5.01
2022-12-16T18:18:17.110Z,5.01
2022-12-16T18:21:03.137Z,5.05
2022-12-16T18:23:50.614Z,5.09
2022-12-16T18:26:36.652Z,5.17
2022-12-16T18:29:22.726Z,5.27
2022-12-16T18:32:08.799Z,5.36
2022-12-16T18:34:54.301Z,5.41
2022-12-16T18:37:40.144Z,5.48
2022-12-16T18:40:28.750Z,5.50
2022-12-16T18:43:14.625Z,5.47
2022-12-16T18:46:00.172Z,5.45
2022-12-16T18:48:47.003Z,5.43
2022-12-16T18:51:32.346Z,5.44
2022-12-16T18:54:18.083Z,5.40
2022-12-16T18:57:06.252Z,5.35
2022-12-16T18:59:51.954Z,5.35
2022-12-16T19:02:37.491Z,5.37
2022-12-16T19:05:23.683Z,5.36
2022-12-16T19:08:14.087Z,5.32
2022-12-16T19:11:00.382Z,5.31
2022-12-16T19:13:47.196Z,5.35
2022-12-16T19:16:32.775Z,5.37
2022-12-16T19:19:20.410Z,5.39
2022-12-16T19:22:06.599Z,5.40
2022-12-16T19:24:52.155Z,5.41
2022-12-16T19:27:37.704Z,5.36
2022-12-16T19:30:27.331Z,5.35
2022-12-16T19:33:12.971Z,5.33
2022-12-16T19:35:58.456Z,5.31
2022-12-16T19:38:43.781Z,5.25
2022-12-16T19:41:33.859Z,5.26
2022-12-16T19:44:20.269Z,5.30
2022-12-16T19:47:07.089Z,5.35
2022-12-16T19:49:52.611Z,5.34
2022-12-16T19:52:40.726Z,5.34
2022-12-16T19:55:27.142Z,5.26
2022-12-16T19:58:13.003Z,5.26
2022-12-16T20:00:58.634Z,5.30
2022-12-16T20:03:46.195Z,5.31
2022-12-16T20:06:32.375Z,5.25
2022-12-16T20:09:18.026Z,5.23
2022-12-16T20:12:03.915Z,5.26
2022-12-16T20:14:49.803Z,5.32
2022-12-16T20:17:35.297Z,5.30
2022-12-16T20:20:23.105Z,5.25
2022-12-16T20:23:08.757Z,5.19
2022-12-16T20:29:00.665Z,5.08
2022-12-16T20:31:47.916Z,5.02
2022-12-16T20:34:33.881Z,4.97
2022-12-16T20:37:21.062Z,4.93
2022-12-16T20:40:06.629Z,4.90
2022-12-16T20:45:57.520Z,4.74
2022-12-16T20:48:43.161Z,4.69
2022-12-16T20:51:29.206Z,4.56
2022-12-16T20:54:16.174Z,4.49
2022-12-16T20:57:02.047Z,4.38
2022-12-16T20:59:47.382Z,4.38
2022-12-16T21:02:34.217Z,4.45
2022-12-16T21:05:20.924Z,4.47
2022-12-16T21:08:20.685Z,4.48
2022-12-16T21:11:07.658Z,4.36
2022-12-16T21:13:56.447Z,4.31
2022-12-16T21:16:42.202Z,4.28
2022-12-16T21:19:33.101Z,4.26
2022-12-16T21:22:19.237Z,4.22
2022-12-16T21:25:04.909Z,4.14
2022-12-16T21:27:51.715Z,4.10
2022-12-16T21:30:38.219Z,4.13
2022-12-16T21:33:23.614Z,4.15
2022-12-16T21:36:12.111Z,4.16
2022-12-16T21:38:58.022Z,4.20
2022-12-16T21:41:43.498Z,4.24
2022-12-16T21:44:30.342Z,4.23
2022-12-16T21:47:15.904Z,4.19
2022-12-16T21:50:01.707Z,4.19
2022-12-16T21:52:47.663Z,4.24
2022-12-16T21:55:33.270Z,4.31
2022-12-16T21:58:18.843Z,4.39
2022-12-16T22:01:12.628Z,4.47
2022-12-16T22:03:58.191Z,4.55
2022-12-16T22:06:48.577Z,4.54
2022-12-16T22:09:34.699Z,4.48
2022-12-16T22:12:20.362Z,4.40
2022-12-16T22:15:05.957Z,4.32
2022-12-16T22:17:57.945Z,4.17
2022-12-16T22:20:44.186Z,4.02
2022-12-16T22:23:29.933Z,3.90
2022-12-16T22:26:16.599Z,3.84
2022-12-16T22:29:02.159Z,3.83
2022-12-16T22:31:47.998Z,3.82
2022-12-16T22:34:35.686Z,3.81
2022-12-16T22:37:21.334Z,3.80
2022-12-16T22:40:07.804Z,3.77
2022-12-16T22:42:53.307Z,3.73
2022-12-16T22:45:39.278Z,3.69
2022-12-16T22:48:25.266Z,3.68
2022-12-16T22:51:12.136Z,3.71
2022-12-16T22:53:57.948Z,3.75
2022-12-16T22:56:43.562Z,3.78
2022-12-16T22:59:29.066Z,3.78
2022-12-16T23:02:14.847Z,3.80
2022-12-16T23:05:00.471Z,3.82
2022-12-16T23:07:47.740Z,3.87
2022-12-16T23:10:33.423Z,3.90
2022-12-16T23:13:19.306Z,3.88
2022-12-16T23:16:04.944Z,3.87
2022-12-16T23:18:50.792Z,3.81
2022-12-16T23:21:38.498Z,3.78
2022-12-16T23:24:27.586Z,3.72
2022-12-16T23:27:13.597Z,3.61
2022-12-16T23:29:59.094Z,3.52
2022-12-16T23:32:30.905Z,5.13
2022-12-16T23:32:45.167Z,3.47
2022-12-16T23:35:31.078Z,3.47
2022-12-16T23:38:20.660Z,3.51
2022-12-16T23:41:13.059Z,3.55
2022-12-16T23:44:00.339Z,3.51
2022-12-16T23:46:46.301Z,3.46
2022-12-16T23:49:32.239Z,3.40
2022-12-16T23:52:18.016Z,3.32
2022-12-16T23:55:03.515Z,3.24
2022-12-16T23:57:50.475Z,3.11
